createdAt,value
2018-08-25T00:00:26.307Z,0.00
2018-08-25T00:01:26.296Z,0.00
2018-08-25T00:02:26.283Z,0.00
2018-08-25T00:03:26.265Z,0.00
2018-08-25T00:04:26.254Z,0.00
2018-08-25T00:05:26.237Z,0.00
2018-08-25T00:06:26.224Z,0.00
2018-08-25T00:07:26.215Z,0.00
2018-08-25T00:08:26.200Z,0.00
2018-08-25T00:09:26.181Z,0.00
2018-08-25T00:10:26.169Z,0.00
2018-08-25T00:11:26.153Z,0.00
2018-08-25T00:12:26.146Z,0.00
2018-08-25T00:13:26.123Z,0.00
2018-08-25T00:14:26.111Z,0.00
2018-08-25T00:15:26.097Z,0.00
2018-08-25T00:16:26.084Z,0.00
2018-08-25T00:17:26.069Z,0.00
2018-08-25T00:18:26.058Z,0.00
2018-08-25T00:19:26.051Z,0.00
2018-08-25T00:20:26.031Z,0.00
2018-08-25T00:21:26.012Z,0.00
2018-08-25T00:22:26.000Z,0.00
2018-08-25T00:23:25.988Z,0.00
2018-08-25T00:24:25.977Z,0.00
2018-08-25T00:25:25.955Z,0.00
2018-08-25T00:26:25.942Z,0.00
2018-08-25T00:27:25.929Z,0.00
2018-08-25T00:28:25.913Z,0.00
2018-08-25T00:29:25.903Z,0.00
2018-08-25T00:30:25.892Z,0.00
2018-08-25T00:31:25.877Z,0.00
2018-08-25T00:32:25.858Z,0.00
2018-08-25T00:33:25.848Z,0.00
2018-08-25T00:34:25.830Z,0.00
2018-08-25T00:35:25.815Z,0.00
2018-08-25T00:36:25.802Z,0.00
2018-08-25T00:37:25.784Z,0.00
2018-08-25T00:38:25.772Z,0.00
2018-08-25T00:39:25.758Z,0.00
2018-08-25T00:40:25.746Z,0.00
2018-08-25T00:41:25.729Z,0.00
2018-08-25T00:42:25.716Z,0.00
2018-08-25T00:43:25.702Z,0.00
2018-08-25T00:44:25.691Z,0.00
2018-08-25T00:45:25.672Z,0.00
2018-08-25T00:46:25.656Z,0.00
2018-08-25T00:47:25.644Z,0.00
2018-08-25T00:48:25.635Z,0.00
2018-08-25T00:49:25.616Z,0.00
2018-08-25T00:50:25.600Z,0.00
2018-08-25T00:51:25.587Z,0.00
2018-08-25T00:52:25.572Z,0.00
2018-08-25T00:53:25.563Z,0.00
2018-08-25T00:54:25.544Z,0.00
2018-08-25T00:55:25.528Z,0.00
2018-08-25T00:56:25.514Z,0.00
2018-08-25T00:57:25.534Z,0.00
2018-08-25T00:58:25.486Z,0.00
2018-08-25T00:59:25.569Z,0.00
2018-08-25T01:00:25.456Z,0.00
2018-08-25T01:01:25.443Z,0.00
2018-08-25T01:02:25.427Z,0.00
2018-08-25T01:03:25.412Z,0.00
2018-08-25T01:04:25.414Z,0.00
2018-08-25T01:05:25.382Z,0.00
2018-08-25T01:06:25.368Z,0.00
2018-08-25T01:07:27.975Z,0.00
2018-08-25T01:08:25.346Z,0.00
2018-08-25T01:09:25.325Z,0.00
2018-08-25T01:10:25.309Z,0.00
2018-08-25T01:11:25.295Z,0.00
2018-08-25T01:12:25.280Z,0.00
2018-08-25T01:13:25.265Z,0.00
2018-08-25T01:14:25.254Z,0.00
2018-08-25T01:15:25.236Z,0.00
2018-08-25T01:16:25.222Z,0.00
2018-08-25T01:17:25.204Z,0.00
2018-08-25T01:18:25.198Z,0.00
2018-08-25T01:19:25.177Z,0.00
2018-08-25T01:20:25.168Z,0.00
2018-08-25T01:21:25.151Z,0.00
2018-08-25T01:22:25.133Z,0.00
2018-08-25T01:23:25.120Z,0.00
2018-08-25T01:24:25.109Z,0.00
2018-08-25T01:25:25.090Z,0.00
2018-08-25T01:26:25.074Z,0.00
2018-08-25T01:27:25.058Z,0.00
2018-08-25T01:28:25.043Z,0.00
2018-08-25T01:29:25.028Z,0.00
2018-08-25T01:30:25.015Z,0.00
2018-08-25T01:31:24.999Z,0.00
2018-08-25T01:32:24.987Z,0.00
2018-08-25T01:33:24.973Z,0.00
2018-08-25T01:34:24.957Z,0.00
2018-08-25T01:35:24.940Z,0.00
2018-08-25T01:36:24.922Z,0.00
2018-08-25T01:37:24.910Z,0.00
2018-08-25T01:38:24.895Z,0.00
2018-08-25T01:39:24.880Z,0.00
2018-08-25T01:40:24.867Z,0.00
2018-08-25T01:41:24.849Z,0.00
2018-08-25T01:42:24.834Z,0.00
2018-08-25T01:43:24.819Z,0.00
2018-08-25T01:44:24.806Z,0.00
2018-08-25T01:45:24.790Z,0.00
2018-08-25T01:46:24.774Z,0.00
2018-08-25T01:47:24.762Z,0.00
2018-08-25T01:48:24.744Z,0.00
2018-08-25T01:49:24.730Z,0.00
2018-08-25T01:50:24.719Z,0.00
2018-08-25T01:52:07.233Z,0.00
2018-08-25T01:53:07.214Z,0.00
2018-08-25T01:54:07.197Z,0.00
2018-08-25T01:55:07.182Z,0.00
2018-08-25T01:56:07.168Z,0.00
2018-08-25T01:57:07.154Z,0.00
2018-08-25T01:58:07.139Z,0.00
2018-08-25T01:59:07.122Z,0.00
2018-08-25T02:00:07.109Z,0.00
2018-08-25T02:01:07.095Z,0.00
2018-08-25T02:02:07.080Z,0.00
2018-08-25T02:03:07.063Z,0.00
2018-08-25T02:04:07.048Z,0.00
2018-08-25T02:05:07.034Z,0.00
2018-08-25T02:06:07.020Z,0.00
2018-08-25T02:07:07.003Z,0.00
2018-08-25T02:08:06.987Z,0.00
2018-08-25T02:09:06.973Z,0.00
2018-08-25T02:10:06.959Z,0.00
2018-08-25T02:11:06.941Z,0.00
2018-08-25T02:12:06.927Z,0.00
2018-08-25T02:13:06.914Z,0.00
2018-08-25T02:14:06.898Z,0.00
2018-08-25T02:15:06.882Z,0.00
2018-08-25T02:16:06.866Z,0.00
2018-08-25T02:17:06.850Z,0.00
2018-08-25T02:18:06.837Z,0.00
2018-08-25T02:19:06.821Z,0.00
2018-08-25T02:20:06.805Z,0.00
2018-08-25T02:21:06.790Z,0.00
2018-08-25T02:22:06.777Z,0.00
2018-08-25T02:23:06.759Z,0.00
2018-08-25T02:24:06.743Z,0.00
2018-08-25T02:25:06.730Z,0.00
2018-08-25T02:26:06.714Z,0.00
2018-08-25T02:27:06.703Z,0.00
2018-08-25T02:28:06.708Z,0.00
2018-08-25T02:29:06.670Z,0.00
2018-08-25T02:30:06.655Z,0.00
2018-08-25T02:31:06.637Z,0.00
2018-08-25T02:32:06.628Z,0.00
2018-08-25T02:33:06.615Z,0.00
2018-08-25T02:34:06.597Z,0.00
2018-08-25T02:35:06.577Z,0.00
2018-08-25T02:36:06.562Z,0.00
2018-08-25T02:37:06.549Z,0.00
2018-08-25T02:38:06.533Z,0.00
2018-08-25T02:39:06.516Z,0.00
2018-08-25T02:40:06.501Z,0.00
2018-08-25T02:41:06.487Z,0.00
2018-08-25T02:42:06.472Z,0.00
2018-08-25T02:43:06.455Z,0.00
2018-08-25T02:44:06.444Z,0.00
2018-08-25T02:45:06.425Z,0.00
2018-08-25T02:46:06.409Z,0.00
2018-08-25T02:47:06.393Z,0.00
2018-08-25T02:48:06.379Z,0.00
2018-08-25T02:49:06.371Z,0.00
2018-08-25T02:50:06.350Z,0.00
2018-08-25T02:51:06.331Z,0.00
2018-08-25T02:52:06.317Z,0.00
2018-08-25T02:53:06.306Z,0.00
2018-08-25T02:54:06.286Z,0.00
2018-08-25T02:55:06.271Z,0.00
2018-08-25T02:56:06.254Z,0.00
2018-08-25T02:57:06.240Z,0.00
2018-08-25T02:58:06.237Z,0.00
2018-08-25T02:59:06.213Z,0.00
2018-08-25T03:00:06.198Z,0.00
2018-08-25T03:01:06.181Z,0.00
2018-08-25T03:02:06.166Z,0.00
2018-08-25T03:03:06.150Z,0.00
2018-08-25T03:04:06.133Z,0.00
2018-08-25T03:05:06.117Z,0.00
2018-08-25T03:06:06.105Z,0.00
2018-08-25T03:07:06.088Z,0.00
2018-08-25T03:08:06.081Z,0.00
2018-08-25T03:09:06.060Z,0.00
2018-08-25T03:10:06.042Z,0.00
2018-08-25T03:11:06.026Z,0.00
2018-08-25T03:12:06.019Z,0.00
2018-08-25T03:13:05.995Z,0.00
2018-08-25T03:14:05.981Z,0.00
2018-08-25T03:15:05.964Z,0.00
2018-08-25T03:16:05.950Z,0.00
2018-08-25T03:17:05.933Z,0.00
2018-08-25T03:18:05.917Z,0.00
2018-08-25T03:19:05.901Z,0.00
2018-08-25T03:20:05.897Z,0.00
2018-08-25T03:21:05.877Z,0.00
2018-08-25T03:22:05.854Z,0.00
2018-08-25T03:23:05.838Z,0.00
2018-08-25T03:24:05.822Z,0.00
2018-08-25T03:25:05.809Z,0.00
2018-08-25T03:26:05.794Z,0.00
2018-08-25T03:27:05.777Z,0.00
2018-08-25T03:28:05.761Z,0.00
2018-08-25T03:29:05.745Z,0.00
2018-08-25T03:30:05.732Z,0.00
2018-08-25T03:31:05.715Z,0.00
2018-08-25T03:32:05.700Z,0.00
2018-08-25T03:33:05.699Z,0.00
2018-08-25T03:34:05.669Z,0.00
2018-08-25T03:35:05.652Z,0.00
2018-08-25T03:36:05.637Z,0.00
2018-08-25T03:37:05.623Z,0.00
2018-08-25T03:38:05.606Z,0.00
2018-08-25T03:39:05.591Z,0.00
2018-08-25T03:40:05.576Z,0.00
2018-08-25T03:41:05.562Z,0.00
2018-08-25T03:42:05.548Z,0.00
2018-08-25T03:43:05.528Z,0.00
2018-08-25T03:44:05.514Z,0.00
2018-08-25T03:45:05.500Z,0.00
2018-08-25T03:46:05.484Z,0.00
2018-08-25T03:47:05.468Z,0.00
2018-08-25T03:48:05.451Z,0.00
2018-08-25T03:49:05.437Z,0.00
2018-08-25T03:50:05.425Z,0.00
2018-08-25T03:51:05.405Z,0.00
2018-08-25T03:52:05.390Z,0.00
2018-08-25T03:53:05.372Z,0.00
2018-08-25T03:54:05.362Z,0.00
2018-08-25T03:55:05.343Z,0.00
2018-08-25T03:56:05.326Z,0.00
2018-08-25T03:57:05.312Z,0.00
2018-08-25T03:58:05.295Z,0.00
2018-08-25T03:59:05.280Z,0.00
2018-08-25T04:00:05.268Z,0.00
2018-08-25T04:01:05.253Z,0.00
2018-08-25T04:02:05.233Z,0.00
2018-08-25T04:03:05.216Z,0.00
2018-08-25T04:04:05.205Z,0.00
2018-08-25T04:05:05.186Z,0.00
2018-08-25T04:06:05.174Z,0.00
2018-08-25T04:07:05.157Z,0.00
2018-08-25T04:08:05.138Z,0.00
2018-08-25T04:09:05.126Z,0.00
2018-08-25T04:10:05.107Z,0.00
2018-08-25T04:11:05.090Z,0.00
2018-08-25T04:12:05.076Z,0.00
2018-08-25T04:13:05.062Z,0.00
2018-08-25T04:14:05.047Z,0.00
2018-08-25T04:15:05.030Z,0.00
2018-08-25T04:16:05.016Z,0.00
2018-08-25T04:17:04.998Z,0.00
2018-08-25T04:18:04.983Z,0.00
2018-08-25T04:19:04.966Z,0.00
2018-08-25T04:20:04.952Z,0.00
2018-08-25T04:21:04.939Z,0.00
2018-08-25T04:22:04.945Z,0.00
2018-08-25T04:23:04.904Z,5.63
2018-08-25T04:24:04.890Z,5.63
2018-08-25T04:25:04.874Z,5.63
2018-08-25T04:26:04.859Z,5.63
2018-08-25T04:27:04.840Z,5.63
2018-08-25T04:28:04.825Z,5.63
2018-08-25T04:29:04.809Z,5.63
2018-08-25T04:30:04.793Z,11.25
2018-08-25T04:31:04.777Z,11.25
2018-08-25T04:32:04.764Z,11.25
2018-08-25T04:33:04.747Z,11.25
2018-08-25T04:34:04.731Z,11.25
2018-08-25T04:35:04.714Z,11.25
2018-08-25T04:36:04.699Z,11.25
2018-08-25T04:37:04.685Z,11.25
2018-08-25T04:38:04.669Z,11.25
2018-08-25T04:39:04.651Z,11.25
2018-08-25T04:40:04.637Z,11.25
2018-08-25T04:41:04.632Z,11.25
2018-08-25T04:42:04.605Z,11.25
2018-08-25T04:43:04.587Z,16.88
2018-08-25T04:44:04.573Z,16.88
2018-08-25T04:45:04.561Z,16.88
2018-08-25T04:46:04.541Z,16.88
2018-08-25T04:47:04.525Z,22.50
2018-08-25T04:48:04.510Z,22.50
2018-08-25T04:49:04.495Z,22.50
2018-08-25T04:50:04.478Z,22.50
2018-08-25T04:51:04.462Z,22.50
2018-08-25T04:52:04.446Z,22.50
2018-08-25T04:53:04.431Z,22.50
2018-08-25T04:54:04.413Z,28.13
2018-08-25T04:55:04.405Z,28.13
2018-08-25T04:56:04.391Z,28.13
2018-08-25T04:57:04.370Z,28.13
2018-08-25T04:58:04.357Z,33.75
2018-08-25T04:59:04.340Z,33.75
2018-08-25T05:00:04.320Z,28.13
2018-08-25T05:01:04.303Z,28.13
2018-08-25T05:02:04.360Z,28.13
2018-08-25T05:03:04.277Z,28.13
2018-08-25T05:04:04.258Z,28.13
2018-08-25T05:05:04.248Z,28.13
2018-08-25T05:06:04.227Z,28.13
2018-08-25T05:07:04.216Z,28.13
2018-08-25T05:08:04.195Z,28.13
2018-08-25T05:09:04.179Z,33.75
2018-08-25T05:10:04.163Z,33.75
2018-08-25T05:11:04.147Z,33.75
2018-08-25T05:12:04.133Z,28.13
2018-08-25T05:13:04.116Z,28.13
2018-08-25T05:14:04.101Z,33.75
2018-08-25T05:15:04.084Z,33.75
2018-08-25T05:16:04.069Z,33.75
2018-08-25T05:17:04.056Z,33.75
2018-08-25T05:18:04.037Z,33.75
2018-08-25T05:19:04.023Z,39.38
2018-08-25T05:20:04.005Z,39.38
2018-08-25T05:21:03.990Z,45.00
2018-08-25T05:22:04.086Z,50.63
2018-08-25T05:23:03.956Z,50.63
2018-08-25T05:24:03.948Z,56.25
2018-08-25T05:25:03.927Z,56.25
2018-08-25T05:26:03.911Z,56.25
2018-08-25T05:27:03.900Z,56.25
2018-08-25T05:28:03.882Z,61.88
2018-08-25T05:29:03.867Z,61.88
2018-08-25T05:30:03.851Z,67.50
2018-08-25T05:31:03.835Z,67.50
2018-08-25T05:32:03.818Z,73.13
2018-08-25T05:33:03.810Z,67.50
2018-08-25T05:34:03.786Z,67.50
2018-08-25T05:35:03.770Z,73.13
2018-08-25T05:36:03.752Z,67.50
2018-08-25T05:37:03.737Z,67.50
2018-08-25T05:38:03.722Z,67.50
2018-08-25T05:39:03.707Z,67.50
2018-08-25T05:40:03.689Z,73.13
2018-08-25T05:41:03.674Z,73.13
2018-08-25T05:42:03.664Z,78.75
2018-08-25T05:43:03.640Z,78.75
2018-08-25T05:44:03.634Z,84.38
2018-08-25T05:45:03.611Z,90.00
2018-08-25T05:46:03.594Z,90.00
2018-08-25T05:47:03.577Z,95.63
2018-08-25T05:48:03.561Z,101.25
2018-08-25T05:49:03.547Z,101.25
2018-08-25T05:50:03.534Z,101.25
2018-08-25T05:51:03.515Z,106.88
2018-08-25T05:52:03.499Z,112.50
2018-08-25T05:53:03.484Z,112.50
2018-08-25T05:54:03.472Z,112.50
2018-08-25T05:55:03.451Z,118.13
2018-08-25T05:56:03.437Z,118.13
2018-08-25T05:57:03.419Z,123.75
2018-08-25T05:58:03.404Z,129.38
2018-08-25T05:59:03.388Z,135.00
2018-08-25T06:00:03.372Z,140.63
2018-08-25T06:01:03.356Z,151.88
2018-08-25T06:02:03.343Z,157.50
2018-08-25T06:03:03.326Z,163.13
2018-08-25T06:04:03.309Z,163.13
2018-08-25T06:05:03.296Z,163.13
2018-08-25T06:06:03.324Z,168.75
2018-08-25T06:07:03.274Z,163.13
2018-08-25T06:08:03.254Z,163.13
2018-08-25T06:09:03.234Z,157.50
2018-08-25T06:10:03.218Z,157.50
2018-08-25T06:11:03.202Z,157.50
2018-08-25T06:12:03.189Z,163.13
2018-08-25T06:13:03.172Z,168.75
2018-08-25T06:14:03.158Z,180.00
2018-08-25T06:15:03.142Z,196.88
2018-08-25T06:16:03.128Z,202.50
2018-08-25T06:17:03.111Z,208.13
2018-08-25T06:18:03.097Z,208.13
2018-08-25T06:19:03.101Z,213.75
2018-08-25T06:20:03.066Z,225.00
2018-08-25T06:21:03.052Z,225.00
2018-08-25T06:22:03.038Z,225.00
2018-08-25T06:23:03.019Z,225.00
2018-08-25T06:24:03.004Z,225.00
2018-08-25T06:25:02.991Z,225.00
2018-08-25T06:26:02.976Z,225.00
2018-08-25T06:27:02.958Z,230.63
2018-08-25T06:28:02.945Z,236.25
2018-08-25T06:29:02.930Z,247.50
2018-08-25T06:30:02.920Z,253.13
2018-08-25T06:31:02.900Z,264.38
2018-08-25T06:32:02.894Z,264.38
2018-08-25T06:33:02.872Z,258.75
2018-08-25T06:34:02.862Z,247.50
2018-08-25T06:35:02.840Z,236.25
2018-08-25T06:36:02.839Z,213.75
2018-08-25T06:37:02.814Z,213.75
2018-08-25T06:38:02.800Z,236.25
2018-08-25T06:39:02.786Z,225.00
2018-08-25T06:40:02.772Z,213.75
2018-08-25T06:41:02.756Z,202.50
2018-08-25T06:42:02.742Z,202.50
2018-08-25T06:43:02.724Z,213.75
2018-08-25T06:44:02.709Z,230.63
2018-08-25T06:45:02.696Z,247.50
2018-08-25T06:46:02.682Z,253.13
2018-08-25T06:47:02.666Z,253.13
2018-08-25T06:48:02.658Z,258.75
2018-08-25T06:49:02.636Z,270.00
2018-08-25T06:50:02.621Z,275.63
2018-08-25T06:51:02.607Z,292.50
2018-08-25T06:52:02.595Z,292.50
2018-08-25T06:53:02.578Z,315.00
2018-08-25T06:54:02.565Z,331.88
2018-08-25T06:55:02.548Z,337.50
2018-08-25T06:56:02.533Z,303.75
2018-08-25T06:57:02.521Z,309.38
2018-08-25T06:58:02.507Z,298.13
2018-08-25T06:59:02.489Z,309.38
2018-08-25T07:00:02.486Z,320.63
2018-08-25T07:01:02.466Z,309.38
2018-08-25T07:02:02.447Z,286.88
2018-08-25T07:03:02.433Z,326.25
2018-08-25T07:04:02.421Z,376.88
2018-08-25T07:05:02.404Z,405.00
2018-08-25T07:06:02.458Z,405.00
2018-08-25T07:07:02.378Z,393.75
2018-08-25T07:08:02.361Z,343.13
2018-08-25T07:09:02.348Z,315.00
2018-08-25T07:10:02.335Z,298.13
2018-08-25T07:11:02.319Z,292.50
2018-08-25T07:12:02.310Z,298.13
2018-08-25T07:13:02.366Z,303.75
2018-08-25T07:14:02.278Z,348.75
2018-08-25T07:15:02.266Z,343.13
2018-08-25T07:16:02.251Z,354.38
2018-08-25T07:17:02.232Z,360.00
2018-08-25T07:18:02.221Z,337.50
2018-08-25T07:19:02.277Z,309.38
2018-08-25T07:20:02.196Z,309.38
2018-08-25T07:21:02.177Z,309.38
2018-08-25T07:22:02.164Z,270.00
2018-08-25T07:23:02.153Z,253.13
2018-08-25T07:24:02.136Z,241.88
2018-08-25T07:25:02.126Z,236.25
2018-08-25T07:26:02.124Z,247.50
2018-08-25T07:27:02.095Z,236.25
2018-08-25T07:28:02.082Z,241.88
2018-08-25T07:29:02.070Z,545.63
2018-08-25T07:30:02.090Z,309.38
2018-08-25T07:31:02.041Z,225.00
2018-08-25T07:32:02.035Z,180.00
2018-08-25T07:33:02.013Z,174.38
2018-08-25T07:34:02.005Z,202.50
2018-08-25T07:35:01.988Z,230.63
2018-08-25T07:36:01.970Z,258.75
2018-08-25T07:37:01.963Z,264.38
2018-08-25T07:38:01.941Z,247.50
2018-08-25T07:39:01.933Z,337.50
2018-08-25T07:40:01.920Z,219.38
2018-08-25T07:41:01.901Z,225.00
2018-08-25T07:42:01.888Z,225.00
2018-08-25T07:43:01.877Z,230.63
2018-08-25T07:44:01.860Z,236.25
2018-08-25T07:45:01.852Z,241.88
2018-08-25T07:46:01.836Z,247.50
2018-08-25T07:47:01.818Z,258.75
2018-08-25T07:48:01.805Z,258.75
2018-08-25T07:49:01.794Z,236.25
2018-08-25T07:50:01.781Z,258.75
2018-08-25T07:51:01.783Z,298.13
2018-08-25T07:52:01.777Z,309.38
2018-08-25T07:53:01.736Z,315.00
2018-08-25T07:54:01.721Z,303.75
2018-08-25T07:55:01.711Z,281.25
2018-08-25T07:56:01.696Z,275.63
2018-08-25T07:57:01.684Z,348.75
2018-08-25T07:58:01.706Z,461.25
2018-08-25T07:59:01.665Z,596.25
2018-08-25T08:00:01.648Z,691.88
2018-08-25T08:01:01.630Z,562.50
2018-08-25T08:02:01.612Z,500.63
2018-08-25T08:03:01.601Z,528.75
2018-08-25T08:04:01.583Z,500.63
2018-08-25T08:05:01.575Z,500.63
2018-08-25T08:06:01.562Z,630.00
2018-08-25T08:07:01.548Z,714.38
2018-08-25T08:08:01.531Z,731.25
2018-08-25T08:09:01.518Z,905.63
2018-08-25T08:10:01.503Z,956.25
2018-08-25T08:11:01.489Z,793.13
2018-08-25T08:12:01.555Z,1293.75
2018-08-25T08:13:01.477Z,2244.38
2018-08-25T08:14:01.453Z,2210.63
2018-08-25T08:15:01.440Z,1226.25
2018-08-25T08:16:01.426Z,804.38
2018-08-25T08:17:01.420Z,990.00
2018-08-25T08:18:01.404Z,1125.00
2018-08-25T08:19:01.398Z,1805.63
2018-08-25T08:20:01.375Z,1096.88
2018-08-25T08:21:01.362Z,2435.63
2018-08-25T08:22:01.353Z,1743.75
2018-08-25T08:23:01.340Z,798.75
2018-08-25T08:24:01.327Z,905.63
2018-08-25T08:25:01.319Z,1018.13
2018-08-25T08:26:01.306Z,759.38
2018-08-25T08:27:01.292Z,635.63
2018-08-25T08:28:01.283Z,607.50
2018-08-25T08:29:01.270Z,596.25
2018-08-25T08:30:01.257Z,585.00
2018-08-25T08:31:01.251Z,630.00
2018-08-25T08:32:01.236Z,821.25
2018-08-25T08:33:01.293Z,810.00
2018-08-25T08:34:01.212Z,843.75
2018-08-25T08:35:01.199Z,1141.88
2018-08-25T08:36:01.193Z,1119.38
2018-08-25T08:37:01.178Z,826.88
2018-08-25T08:38:01.170Z,900.00
2018-08-25T08:39:01.155Z,995.63
2018-08-25T08:40:01.151Z,1243.13
2018-08-25T08:41:01.135Z,1029.38
2018-08-25T08:42:01.126Z,1305.00
2018-08-25T08:43:01.111Z,2947.50
2018-08-25T08:44:01.101Z,2705.63
2018-08-25T08:45:01.098Z,1783.13
2018-08-25T08:46:01.081Z,2536.88
2018-08-25T08:47:01.065Z,2857.50
2018-08-25T08:48:01.060Z,2846.25
2018-08-25T08:49:01.054Z,2829.38
2018-08-25T08:50:01.082Z,2953.13
2018-08-25T08:51:01.026Z,2700.00
2018-08-25T08:52:01.015Z,1777.50
2018-08-25T08:53:01.007Z,3195.00
2018-08-25T08:54:01.000Z,2975.63
2018-08-25T08:55:01.003Z,2953.13
2018-08-25T08:56:00.986Z,2964.38
2018-08-25T08:57:00.972Z,3026.25
2018-08-25T08:58:00.958Z,3256.88
2018-08-25T08:59:00.950Z,3391.88
2018-08-25T09:00:00.944Z,3425.63
2018-08-25T09:01:00.933Z,3481.88
2018-08-25T09:02:00.925Z,3386.25
2018-08-25T09:03:00.915Z,3481.88
2018-08-25T09:04:00.909Z,3487.50
2018-08-25T09:05:00.904Z,3470.63
2018-08-25T09:06:00.892Z,3470.63
2018-08-25T09:07:00.889Z,3555.00
2018-08-25T09:08:00.876Z,3459.38
2018-08-25T09:09:00.872Z,1580.63
2018-08-25T09:10:00.862Z,1620.00
2018-08-25T09:11:00.860Z,1873.13
2018-08-25T09:12:00.849Z,2975.63
2018-08-25T09:13:00.843Z,3020.63
2018-08-25T09:14:00.837Z,3065.63
2018-08-25T09:15:00.826Z,2857.50
2018-08-25T09:16:00.824Z,2919.38
2018-08-25T09:17:00.815Z,2992.50
2018-08-25T09:18:00.809Z,3099.38
2018-08-25T09:19:00.801Z,3200.63
2018-08-25T09:20:00.804Z,3386.25
2018-08-25T09:21:00.789Z,3414.38
2018-08-25T09:22:00.782Z,3301.88
2018-08-25T09:23:00.775Z,3285.00
2018-08-25T09:24:00.767Z,3290.63
2018-08-25T09:25:00.763Z,3403.13
2018-08-25T09:26:00.756Z,3571.88
2018-08-25T09:27:00.751Z,3650.63
2018-08-25T09:28:00.747Z,3656.25
2018-08-25T09:29:00.743Z,3690.00
2018-08-25T09:30:00.736Z,3510.00
2018-08-25T09:31:00.727Z,3386.25
2018-08-25T09:32:00.720Z,3391.88
2018-08-25T09:33:00.715Z,3330.00
2018-08-25T09:34:00.710Z,3290.63
2018-08-25T09:35:00.703Z,3296.25
2018-08-25T09:36:00.877Z,3301.88
2018-08-25T09:37:00.996Z,3448.13
2018-08-25T09:38:00.693Z,3504.38
2018-08-25T09:39:00.681Z,3138.75
2018-08-25T09:40:00.682Z,1957.50
2018-08-25T09:41:00.670Z,1479.38
2018-08-25T09:42:00.667Z,1423.13
2018-08-25T09:43:00.659Z,1411.88
2018-08-25T09:44:00.657Z,1006.88
2018-08-25T09:45:00.652Z,1321.88
2018-08-25T09:46:00.645Z,1305.00
2018-08-25T09:47:00.715Z,399.38
2018-08-25T09:48:00.643Z,393.75
2018-08-25T09:49:00.633Z,410.63
2018-08-25T09:50:00.626Z,421.88
2018-08-25T09:51:00.620Z,303.75
2018-08-25T09:52:00.614Z,444.38
2018-08-25T09:53:00.618Z,472.50
2018-08-25T09:54:00.604Z,455.63
2018-08-25T09:55:00.599Z,444.38
2018-08-25T09:57:00.592Z,365.63
2018-08-25T09:58:00.585Z,247.50
2018-08-25T10:00:00.572Z,247.50
2018-08-25T10:01:00.567Z,225.00
2018-08-25T10:02:00.764Z,286.88
2018-08-25T10:03:00.556Z,241.88
2018-08-25T10:04:00.549Z,348.75
2018-08-25T10:05:00.548Z,354.38
2018-08-25T10:06:00.545Z,354.38
2018-08-25T10:07:00.535Z,348.75
2018-08-25T10:08:00.528Z,241.88
2018-08-25T10:09:00.521Z,275.63
2018-08-25T10:10:00.515Z,191.25
2018-08-25T10:11:00.543Z,247.50
2018-08-25T10:12:00.502Z,410.63
2018-08-25T10:13:00.499Z,393.75
2018-08-25T10:14:00.489Z,365.63
2018-08-25T10:15:00.485Z,371.25
2018-08-25T10:16:00.474Z,371.25
2018-08-25T10:17:00.545Z,399.38
2018-08-25T10:18:00.462Z,388.13
2018-08-25T10:19:00.459Z,393.75
2018-08-25T10:20:00.498Z,371.25
2018-08-25T10:21:00.445Z,388.13
2018-08-25T10:22:00.439Z,365.63
2018-08-25T10:23:00.492Z,354.38
2018-08-25T10:24:00.431Z,360.00
2018-08-25T10:25:00.415Z,410.63
2018-08-25T10:26:00.409Z,376.88
2018-08-25T10:27:00.402Z,348.75
2018-08-25T10:28:00.397Z,405.00
2018-08-25T10:29:00.466Z,405.00
2018-08-25T10:30:00.389Z,365.63
2018-08-25T10:31:00.375Z,371.25
2018-08-25T10:32:00.369Z,393.75
2018-08-25T10:33:00.362Z,303.75
2018-08-25T10:34:00.356Z,309.38
2018-08-25T10:35:00.343Z,270.00
2018-08-25T10:36:00.344Z,337.50
2018-08-25T10:37:00.330Z,399.38
2018-08-25T10:38:00.323Z,303.75
2018-08-25T10:39:00.314Z,365.63
2018-08-25T10:40:00.308Z,376.88
2018-08-25T10:41:00.301Z,388.13
2018-08-25T10:42:00.347Z,410.63
2018-08-25T10:43:00.287Z,343.13
2018-08-25T10:44:00.277Z,208.13
2018-08-25T10:45:00.279Z,517.50
2018-08-25T10:46:00.266Z,466.88
2018-08-25T10:47:00.254Z,438.75
2018-08-25T10:48:00.258Z,843.75
2018-08-25T10:49:00.239Z,1406.25
2018-08-25T10:50:00.232Z,1378.13
2018-08-25T10:51:00.223Z,1344.38
2018-08-25T10:52:00.221Z,1406.25
2018-08-25T10:53:00.211Z,1305.00
2018-08-25T10:54:00.320Z,562.50
2018-08-25T10:55:00.195Z,433.13
2018-08-25T10:56:00.192Z,410.63
2018-08-25T10:57:00.189Z,444.38
2018-08-25T10:58:00.174Z,489.38
2018-08-25T10:59:00.177Z,461.25
2018-08-25T11:00:00.196Z,388.13
2018-08-25T11:01:00.333Z,320.63
2018-08-25T11:02:00.146Z,253.13
2018-08-25T11:03:00.140Z,196.88
2018-08-25T11:04:00.129Z,196.88
2018-08-25T11:05:00.124Z,196.88
2018-08-25T11:06:00.117Z,191.25
2018-08-25T11:07:00.108Z,185.63
2018-08-25T11:08:00.102Z,185.63
2018-08-25T11:09:00.118Z,202.50
2018-08-25T11:10:00.088Z,230.63
2018-08-25T11:11:00.080Z,247.50
2018-08-25T11:12:00.068Z,225.00
2018-08-25T11:13:00.061Z,230.63
2018-08-25T11:14:00.055Z,253.13
2018-08-25T11:15:00.048Z,253.13
2018-08-25T11:16:00.036Z,264.38
2018-08-25T11:17:00.030Z,292.50
2018-08-25T11:18:00.021Z,309.38
2018-08-25T11:19:00.010Z,315.00
2018-08-25T11:20:00.011Z,315.00
2018-08-25T11:20:59.993Z,388.13
2018-08-25T11:21:59.987Z,551.25
2018-08-25T11:22:59.982Z,658.13
2018-08-25T11:23:59.966Z,1006.88
2018-08-25T11:24:59.957Z,658.13
2018-08-25T11:25:59.949Z,635.63
2018-08-25T11:26:59.941Z,641.25
2018-08-25T11:27:59.931Z,624.38
2018-08-25T11:28:59.926Z,731.25
2018-08-25T11:29:59.914Z,894.38
2018-08-25T11:30:59.914Z,787.50
2018-08-25T11:31:59.895Z,894.38
2018-08-25T11:32:59.885Z,1102.50
2018-08-25T11:33:59.880Z,1040.63
2018-08-25T11:34:59.867Z,1001.25
2018-08-25T11:35:59.861Z,765.00
2018-08-25T11:36:59.849Z,793.13
2018-08-25T11:37:59.858Z,776.25
2018-08-25T11:38:59.832Z,1091.25
2018-08-25T11:39:59.826Z,1203.75
2018-08-25T11:40:59.820Z,1170.00
2018-08-25T11:41:59.808Z,1125.00
2018-08-25T11:42:59.799Z,765.00
2018-08-25T11:43:59.840Z,731.25
2018-08-25T11:44:59.783Z,748.13
2018-08-25T11:45:59.774Z,888.75
2018-08-25T11:46:59.767Z,933.75
2018-08-25T11:47:59.756Z,877.50
2018-08-25T11:48:59.750Z,945.00
2018-08-25T11:49:59.743Z,838.13
2018-08-25T11:50:59.735Z,860.63
2018-08-25T11:51:59.728Z,843.75
2018-08-25T11:52:59.721Z,759.38
2018-08-25T11:53:59.761Z,900.00
2018-08-25T11:54:59.705Z,720.00
2018-08-25T11:55:59.701Z,781.88
2018-08-25T11:56:59.696Z,725.63
2018-08-25T11:57:59.689Z,810.00
2018-08-25T11:58:59.683Z,686.25
2018-08-25T11:59:59.672Z,680.63
2018-08-25T12:00:59.716Z,658.13
2018-08-25T12:01:59.655Z,703.13
2018-08-25T12:02:59.647Z,781.88
2018-08-25T12:03:59.649Z,725.63
2018-08-25T12:04:59.636Z,776.25
2018-08-25T12:05:59.628Z,652.50
2018-08-25T12:06:59.624Z,646.88
2018-08-25T12:07:59.619Z,551.25
2018-08-25T12:08:59.605Z,500.63
2018-08-25T12:09:59.599Z,517.50
2018-08-25T12:10:59.592Z,399.38
2018-08-25T12:11:59.590Z,506.25
2018-08-25T12:12:59.577Z,540.00
2018-08-25T12:13:59.569Z,590.63
2018-08-25T12:14:59.562Z,675.00
2018-08-25T12:15:59.558Z,703.13
2018-08-25T12:16:59.551Z,753.75
2018-08-25T12:17:59.545Z,708.75
2018-08-25T12:18:59.536Z,675.00
2018-08-25T12:19:59.529Z,714.38
2018-08-25T12:20:59.524Z,1057.50
2018-08-25T12:21:59.517Z,967.50
2018-08-25T12:22:59.508Z,697.50
2018-08-25T12:23:59.555Z,500.63
2018-08-25T12:24:59.496Z,483.75
2018-08-25T12:25:59.485Z,433.13
2018-08-25T12:26:59.478Z,1012.50
2018-08-25T12:27:59.478Z,1051.88
2018-08-25T12:28:59.463Z,658.13
2018-08-25T12:29:59.457Z,601.88
2018-08-25T12:30:59.449Z,517.50
2018-08-25T12:31:59.446Z,472.50
2018-08-25T12:32:59.432Z,466.88
2018-08-25T12:33:59.425Z,433.13
2018-08-25T12:34:59.416Z,393.75
2018-08-25T12:35:59.412Z,343.13
2018-08-25T12:36:59.410Z,292.50
2018-08-25T12:37:59.395Z,303.75
2018-08-25T12:38:59.437Z,298.13
2018-08-25T12:39:59.381Z,264.38
2018-08-25T12:40:59.374Z,241.88
2018-08-25T12:41:59.361Z,225.00
2018-08-25T12:42:59.363Z,208.13
2018-08-25T12:43:59.345Z,191.25
2018-08-25T12:44:59.388Z,168.75
2018-08-25T12:45:59.328Z,140.63
2018-08-25T12:46:59.318Z,123.75